sensor_id;sensor_type;location;lat;lon;timestamp;pressure;altitude;pressure_sealevel;temperature;humidity
28004;BME280;15330;51.234;6.754;2022-10-04T00:02:47;101946.22;;;12.05;84.85
28004;BME280;15330;51.234;6.754;2022-10-04T00:05:15;101936.13;;;12.26;84.18
28004;BME280;15330;51.234;6.754;2022-10-04T00:07:47;101932.56;;;11.98;84.47
28004;BME280;15330;51.234;6.754;2022-10-04T00:10:22;101929.44;;;12.03;85.07
28004;BME280;15330;51.234;6.754;2022-10-04T00:12:56;101919.13;;;12.08;84.31
28004;BME280;15330;51.234;6.754;2022-10-04T00:15:27;101928.31;;;11.96;85.18
28004;BME280;15330;51.234;6.754;2022-10-04T00:25:49;101922.38;;;12.02;83.94
28004;BME280;15330;51.234;6.754;2022-10-04T00:33:47;101918.00;;;12.01;84.40
28004;BME280;15330;51.234;6.754;2022-10-04T00:41:37;101902.09;;;11.90;84.59
28004;BME280;15330;51.234;6.754;2022-10-04T00:44:10;101901.69;;;11.65;85.37
28004;BME280;15330;51.234;6.754;2022-10-04T00:46:43;101910.56;;;11.85;84.92
28004;BME280;15330;51.234;6.754;2022-10-04T00:49:10;101908.97;;;12.02;83.86
28004;BME280;15330;51.234;6.754;2022-10-04T00:51:43;101908.00;;;12.03;83.64
28004;BME280;15330;51.234;6.754;2022-10-04T00:54:15;101907.69;;;12.06;83.54
28004;BME280;15330;51.234;6.754;2022-10-04T00:56:46;101906.00;;;12.05;83.40
28004;BME280;15330;51.234;6.754;2022-10-04T00:59:34;101908.34;;;11.81;84.06
28004;BME280;15330;51.234;6.754;2022-10-04T01:07:37;101915.06;;;11.85;84.54
28004;BME280;15330;51.234;6.754;2022-10-04T01:10:13;101909.59;;;11.76;84.82
28004;BME280;15330;51.234;6.754;2022-10-04T01:12:53;101907.16;;;11.73;84.52
28004;BME280;15330;51.234;6.754;2022-10-04T01:20:51;101902.28;;;11.59;85.48
28004;BME280;15330;51.234;6.754;2022-10-04T01:23:43;101900.03;;;11.35;85.88
28004;BME280;15330;51.234;6.754;2022-10-04T01:29:23;101896.63;;;11.72;84.46
28004;BME280;15330;51.234;6.754;2022-10-04T01:31:52;101901.84;;;11.45;85.28
28004;BME280;15330;51.234;6.754;2022-10-04T01:34:21;101896.19;;;11.57;85.21
28004;BME280;15330;51.234;6.754;2022-10-04T01:36:47;101882.09;;;11.55;84.65
28004;BME280;15330;51.234;6.754;2022-10-04T01:39:15;101883.94;;;11.45;85.41
28004;BME280;15330;51.234;6.754;2022-10-04T01:46:54;101867.56;;;11.58;85.47
28004;BME280;15330;51.234;6.754;2022-10-04T01:49:26;101877.03;;;11.62;85.23
28004;BME280;15330;51.234;6.754;2022-10-04T01:52:17;101875.63;;;11.38;85.97
28004;BME280;15330;51.234;6.754;2022-10-04T01:54:47;101878.19;;;11.40;86.00
28004;BME280;15330;51.234;6.754;2022-10-04T01:57:19;101872.66;;;11.61;85.10
28004;BME280;15330;51.234;6.754;2022-10-04T02:00:00;101874.09;;;11.36;85.91
28004;BME280;15330;51.234;6.754;2022-10-04T02:04:59;101867.75;;;11.37;86.30
28004;BME280;15330;51.234;6.754;2022-10-04T02:07:28;101867.72;;;11.47;86.33
28004;BME280;15330;51.234;6.754;2022-10-04T02:09:59;101861.81;;;11.33;86.52
28004;BME280;15330;51.234;6.754;2022-10-04T02:12:26;101873.66;;;11.02;88.20
28004;BME280;15330;51.234;6.754;2022-10-04T02:14:53;101867.16;;;11.33;86.49
28004;BME280;15330;51.234;6.754;2022-10-04T02:17:29;101870.31;;;11.10;87.63
28004;BME280;15330;51.234;6.754;2022-10-04T02:19:57;101870.31;;;11.10;87.96
28004;BME280;15330;51.234;6.754;2022-10-04T02:22:24;101865.22;;;11.16;87.28
28004;BME280;15330;51.234;6.754;2022-10-04T02:24:52;101858.28;;;11.14;87.74
28004;BME280;15330;51.234;6.754;2022-10-04T02:27:19;101860.00;;;11.15;88.37
28004;BME280;15330;51.234;6.754;2022-10-04T02:29:45;101848.03;;;11.09;87.34
28004;BME280;15330;51.234;6.754;2022-10-04T02:32:12;101848.88;;;11.10;87.95
28004;BME280;15330;51.234;6.754;2022-10-04T02:34:57;101840.97;;;10.98;89.07
28004;BME280;15330;51.234;6.754;2022-10-04T02:37:24;101837.31;;;10.99;88.74
28004;BME280;15330;51.234;6.754;2022-10-04T02:42:46;101826.88;;;10.87;89.55
28004;BME280;15330;51.234;6.754;2022-10-04T02:45:23;101821.25;;;10.99;88.63
28004;BME280;15330;51.234;6.754;2022-10-04T02:47:56;101822.38;;;10.87;89.44
28004;BME280;15330;51.234;6.754;2022-10-04T02:50:31;101814.75;;;11.02;89.51
28004;BME280;15330;51.234;6.754;2022-10-04T02:53:09;101811.94;;;11.13;88.33
28004;BME280;15330;51.234;6.754;2022-10-04T02:55:36;101815.91;;;10.90;89.43
28004;BME280;15330;51.234;6.754;2022-10-04T02:58:08;101810.38;;;11.01;88.94
28004;BME280;15330;51.234;6.754;2022-10-04T03:00:45;101810.94;;;11.14;88.10
28004;BME280;15330;51.234;6.754;2022-10-04T03:05:44;101820.41;;;11.18;87.97
28004;BME280;15330;51.234;6.754;2022-10-04T03:08:11;101809.25;;;10.94;88.84
28004;BME280;15330;51.234;6.754;2022-10-04T03:10:37;101809.25;;;10.94;88.83
28004;BME280;15330;51.234;6.754;2022-10-04T03:13:03;101813.22;;;11.09;88.67
28004;BME280;15330;51.234;6.754;2022-10-04T03:15:29;101814.75;;;10.92;89.02
28004;BME280;15330;51.234;6.754;2022-10-04T03:17:55;101810.81;;;10.96;88.79
28004;BME280;15330;51.234;6.754;2022-10-04T03:20:21;101800.13;;;10.87;89.18
28004;BME280;15330;51.234;6.754;2022-10-04T03:22:50;101804.03;;;11.02;88.49
28004;BME280;15330;51.234;6.754;2022-10-04T03:25:20;101797.00;;;10.91;88.87
28004;BME280;15330;51.234;6.754;2022-10-04T03:27:48;101789.97;;;10.81;89.78
28004;BME280;15330;51.234;6.754;2022-10-04T03:30:15;101781.66;;;10.84;89.61
28004;BME280;15330;51.234;6.754;2022-10-04T03:32:42;101773.91;;;10.71;90.26
28004;BME280;15330;51.234;6.754;2022-10-04T03:35:19;101776.72;;;10.70;90.71
28004;BME280;15330;51.234;6.754;2022-10-04T03:37:50;101783.47;;;10.64;90.50
28004;BME280;15330;51.234;6.754;2022-10-04T03:40:15;101775.06;;;10.69;90.53
28004;BME280;15330;51.234;6.754;2022-10-04T03:42:42;101777.41;;;10.72;90.62
28004;BME280;15330;51.234;6.754;2022-10-04T03:45:16;101790.53;;;10.65;90.63
28004;BME280;15330;51.234;6.754;2022-10-04T03:47:45;101788.00;;;10.73;90.46
28004;BME280;15330;51.234;6.754;2022-10-04T03:50:17;101791.97;;;10.79;90.39
28004;BME280;15330;51.234;6.754;2022-10-04T03:52:51;101779.69;;;10.86;89.33
28004;BME280;15330;51.234;6.754;2022-10-04T03:55:19;101782.91;;;10.70;90.23
28004;BME280;15330;51.234;6.754;2022-10-04T03:57:46;101769.69;;;10.78;89.88
28004;BME280;15330;51.234;6.754;2022-10-04T04:00:16;101772.66;;;10.75;89.97
28004;BME280;15330;51.234;6.754;2022-10-04T04:02:49;101769.97;;;10.65;90.11
28004;BME280;15330;51.234;6.754;2022-10-04T04:08:05;101773.50;;;10.66;90.36
28004;BME280;15330;51.234;6.754;2022-10-04T04:10:37;101778.53;;;10.59;89.86
28004;BME280;15330;51.234;6.754;2022-10-04T04:15:47;101779.13;;;10.73;90.10
28004;BME280;15330;51.234;6.754;2022-10-04T04:18:21;101782.63;;;10.63;90.28
28004;BME280;15330;51.234;6.754;2022-10-04T04:20:49;101785.44;;;10.52;90.39
28004;BME280;15330;51.234;6.754;2022-10-04T04:23:24;101774.59;;;10.63;90.23
28004;BME280;15330;51.234;6.754;2022-10-04T04:25:54;101779.56;;;10.78;89.33
28004;BME280;15330;51.234;6.754;2022-10-04T04:31:32;101761.81;;;10.57;90.32
28004;BME280;15330;51.234;6.754;2022-10-04T04:34:02;101761.38;;;10.62;89.76
28004;BME280;15330;51.234;6.754;2022-10-04T04:36:30;101758.97;;;10.97;89.07
28004;BME280;15330;51.234;6.754;2022-10-04T04:39:21;101758.69;;;10.81;88.94
28004;BME280;15330;51.234;6.754;2022-10-04T04:44:27;101750.38;;;10.46;90.29
28004;BME280;15330;51.234;6.754;2022-10-04T04:46:53;101755.03;;;10.53;90.16
28004;BME280;15330;51.234;6.754;2022-10-04T04:49:21;101746.59;;;10.48;90.50
28004;BME280;15330;51.234;6.754;2022-10-04T04:51:51;101748.84;;;10.53;90.20
28004;BME280;15330;51.234;6.754;2022-10-04T04:54:20;101749.94;;;10.50;89.72
28004;BME280;15330;51.234;6.754;2022-10-04T04:56:49;101757.97;;;10.31;90.57
28004;BME280;15330;51.234;6.754;2022-10-04T04:59:16;101752.22;;;10.55;89.97
28004;BME280;15330;51.234;6.754;2022-10-04T05:01:44;101744.59;;;10.50;89.99
28004;BME280;15330;51.234;6.754;2022-10-04T05:06:40;101737.78;;;10.17;90.92
28004;BME280;15330;51.234;6.754;2022-10-04T05:09:22;101735.66;;;10.11;91.14
28004;BME280;15330;51.234;6.754;2022-10-04T05:11:48;101722.41;;;10.10;90.89
28004;BME280;15330;51.234;6.754;2022-10-04T05:14:16;101723.84;;;10.14;90.92
28004;BME280;15330;51.234;6.754;2022-10-04T05:16:48;101734.22;;;9.98;91.38
28004;BME280;15330;51.234;6.754;2022-10-04T05:21:44;101740.28;;;10.09;91.19
28004;BME280;15330;51.234;6.754;2022-10-04T05:24:21;101734.28;;;10.17;90.61
28004;BME280;15330;51.234;6.754;2022-10-04T05:26:59;101732.97;;;10.11;90.71
28004;BME280;15330;51.234;6.754;2022-10-04T05:29:28;101737.06;;;10.06;90.70
28004;BME280;15330;51.234;6.754;2022-10-04T05:34:38;101749.03;;;10.11;90.09
28004;BME280;15330;51.234;6.754;2022-10-04T05:37:24;101750.69;;;10.03;91.00
28004;BME280;15330;51.234;6.754;2022-10-04T05:40:03;101743.19;;;10.27;90.25
28004;BME280;15330;51.234;6.754;2022-10-04T05:42:42;101743.09;;;10.08;90.44
28004;BME280;15330;51.234;6.754;2022-10-04T05:45:23;101741.19;;;10.29;90.34
28004;BME280;15330;51.234;6.754;2022-10-04T05:47:51;101740.09;;;10.41;90.12
28004;BME280;15330;51.234;6.754;2022-10-04T05:50:27;101736.56;;;10.60;88.64
28004;BME280;15330;51.234;6.754;2022-10-04T05:53:09;101741.50;;;10.36;89.23
28004;BME280;15330;51.234;6.754;2022-10-04T06:01:35;101735.13;;;10.17;89.53
28004;BME280;15330;51.234;6.754;2022-10-04T06:07:17;101728.84;;;10.38;88.56
28004;BME280;15330;51.234;6.754;2022-10-04T06:09:58;101726.00;;;10.39;89.06
28004;BME280;15330;51.234;6.754;2022-10-04T06:18:33;101740.25;;;10.78;87.13
28004;BME280;15330;51.234;6.754;2022-10-04T06:21:20;101737.00;;;10.55;87.97
28004;BME280;15330;51.234;6.754;2022-10-04T06:24:00;101734.44;;;10.92;86.64
28004;BME280;15330;51.234;6.754;2022-10-04T06:26:41;101730.38;;;11.45;nan
28004;BME280;15330;51.234;6.754;2022-10-04T06:29:17;101737.72;;;11.52;82.25
28004;BME280;15330;51.234;6.754;2022-10-04T06:50:48;101740.16;;;11.83;81.10
28004;BME280;15330;51.234;6.754;2022-10-04T06:56:49;101740.13;;;11.36;82.29
28004;BME280;15330;51.234;6.754;2022-10-04T07:02:13;101734.56;;;12.21;79.65
28004;BME280;15330;51.234;6.754;2022-10-04T07:04:54;101741.78;;;11.93;79.50
28004;BME280;15330;51.234;6.754;2022-10-04T07:07:32;101741.91;;;11.55;81.70
28004;BME280;15330;51.234;6.754;2022-10-04T07:12:34;101742.84;;;11.26;82.12
28004;BME280;15330;51.234;6.754;2022-10-04T07:15:11;101745.72;;;11.62;81.60
28004;BME280;15330;51.234;6.754;2022-10-04T07:17:42;101745.31;;;11.94;80.07
28004;BME280;15330;51.234;6.754;2022-10-04T07:20:26;101756.56;;;12.25;78.62
28004;BME280;15330;51.234;6.754;2022-10-04T07:22:58;101746.28;;;12.20;79.36
28004;BME280;15330;51.234;6.754;2022-10-04T07:25:36;101744.50;;;12.29;77.76
28004;BME280;15330;51.234;6.754;2022-10-04T07:30:55;101748.53;;;12.60;76.66
28004;BME280;15330;51.234;6.754;2022-10-04T07:33:25;101750.66;;;12.21;77.79
28004;BME280;15330;51.234;6.754;2022-10-04T07:35:54;101754.66;;;12.07;79.42
28004;BME280;15330;51.234;6.754;2022-10-04T07:38:28;101749.81;;;11.93;78.86
28004;BME280;15330;51.234;6.754;2022-10-04T07:43:27;101757.84;;;12.21;78.91
28004;BME280;15330;51.234;6.754;2022-10-04T07:46:01;101743.97;;;12.25;78.70
28004;BME280;15330;51.234;6.754;2022-10-04T07:48:28;101757.25;;;11.99;79.16
28004;BME280;15330;51.234;6.754;2022-10-04T07:54:18;101756.88;;;12.57;77.89
28004;BME280;15330;51.234;6.754;2022-10-04T07:56:59;101761.88;;;12.34;78.54
28004;BME280;15330;51.234;6.754;2022-10-04T08:02:08;101757.66;;;12.85;76.62
28004;BME280;15330;51.234;6.754;2022-10-04T08:04:56;101748.84;;;13.18;74.89
28004;BME280;15330;51.234;6.754;2022-10-04T08:15:49;101746.88;;;13.46;73.03
28004;BME280;15330;51.234;6.754;2022-10-04T08:18:31;101747.50;;;13.40;73.76
28004;BME280;15330;51.234;6.754;2022-10-04T08:21:08;101737.28;;;14.20;71.60
28004;BME280;15330;51.234;6.754;2022-10-04T08:29:23;101737.09;;;15.51;67.11
28004;BME280;15330;51.234;6.754;2022-10-04T08:35:18;101730.94;;;16.21;63.68
28004;BME280;15330;51.234;6.754;2022-10-04T08:41:01;101723.59;;;17.20;60.12
28004;BME280;15330;51.234;6.754;2022-10-04T08:48:53;101741.13;;;16.10;63.11
28004;BME280;15330;51.234;6.754;2022-10-04T08:57:30;101734.47;;;18.30;56.76
28004;BME280;15330;51.234;6.754;2022-10-04T09:00:19;101722.69;;;19.29;53.40
28004;BME280;15330;51.234;6.754;2022-10-04T09:09:10;101726.44;;;21.44;
28004;BME280;15330;51.234;6.754;2022-10-04T09:17:21;101716.94;;;22.62;41.56
28004;BME280;15330;51.234;6.754;2022-10-04T09:22:55;101707.69;;;27.83;33.18
28004;BME280;15330;51.234;6.754;2022-10-04T09:36:23;101699.00;;;27.91;32.37
28004;BME280;15330;51.234;6.754;2022-10-04T09:39:01;101709.94;;;26.30;34.33
28004;BME280;15330;51.234;6.754;2022-10-04T09:42:06;101702.59;;;27.91;31.90
28004;BME280;15330;51.234;6.754;2022-10-04T09:47:36;101704.78;;;28.16;31.28
28004;BME280;15330;51.234;6.754;2022-10-04T10:20:20;101688.38;;;28.21;30.62
28004;BME280;15330;51.234;6.754;2022-10-04T10:43:29;101661.47;;;31.54;26.57
28004;BME280;15330;51.234;6.754;2022-10-04T10:46:11;101661.91;;;29.58;28.23
28004;BME280;15330;51.234;6.754;2022-10-04T10:48:49;101666.22;;;29.39;28.86
28004;BME280;15330;51.234;6.754;2022-10-04T11:00:02;101661.03;;;30.40;28.70
28004;BME280;15330;51.234;6.754;2022-10-04T11:16:37;101632.22;;;29.23;29.30
28004;BME280;15330;51.234;6.754;2022-10-04T11:28:33;101641.72;;;20.35;45.08
28004;BME280;15330;51.234;6.754;2022-10-04T11:33:49;101631.22;;;20.32;48.13
28004;BME280;15330;51.234;6.754;2022-10-04T11:42:35;101635.44;;;20.34;48.63
28004;BME280;15330;51.234;6.754;2022-10-04T14:35:26;101471.09;;;19.51;51.88
28004;BME280;15330;51.234;6.754;2022-10-04T14:38:35;101479.25;;;19.51;51.73
28004;BME280;15330;51.234;6.754;2022-10-04T14:52:30;101450.84;;;19.54;53.02
28004;BME280;15330;51.234;6.754;2022-10-04T14:58:14;101452.53;;;19.61;53.28
28004;BME280;15330;51.234;6.754;2022-10-04T15:04:57;101456.84;;;19.36;53.69
28004;BME280;15330;51.234;6.754;2022-10-04T15:07:03;101449.28;;;19.25;53.87
28004;BME280;15330;51.234;6.754;2022-10-04T15:20:46;101438.22;;;19.20;54.00
28004;BME280;15330;51.234;6.754;2022-10-04T15:23:17;101437.59;;;19.24;54.03
28004;BME280;15330;51.234;6.754;2022-10-04T15:34:04;101441.69;;;18.94;55.46
28004;BME280;15330;51.234;6.754;2022-10-04T15:36:57;101452.63;;;18.73;55.27
28004;BME280;15330;51.234;6.754;2022-10-04T15:42:20;101459.50;;;18.68;56.08
28004;BME280;15330;51.234;6.754;2022-10-04T16:06:55;101452.56;;;18.59;57.05
28004;BME280;15330;51.234;6.754;2022-10-04T16:15:29;101455.84;;;18.55;57.41
28004;BME280;15330;51.234;6.754;2022-10-04T16:21:24;101452.03;;;18.43;58.74
28004;BME280;15330;51.234;6.754;2022-10-04T16:35:14;101446.16;;;18.39;59.49
28004;BME280;15330;51.234;6.754;2022-10-04T16:37:54;101446.09;;;18.26;60.26
28004;BME280;15330;51.234;6.754;2022-10-04T16:43:22;101429.94;;;18.11;61.12
28004;BME280;15330;51.234;6.754;2022-10-04T16:46:16;101425.81;;;18.15;61.09
28004;BME280;15330;51.234;6.754;2022-10-04T16:48:57;101420.97;;;18.11;61.04
28004;BME280;15330;51.234;6.754;2022-10-04T16:57:22;101436.53;;;18.02;63.45
28004;BME280;15330;51.234;6.754;2022-10-04T16:59:50;101433.72;;;17.89;64.10
28004;BME280;15330;51.234;6.754;2022-10-04T17:02:36;101439.09;;;17.82;63.89
28004;BME280;15330;51.234;6.754;2022-10-04T17:05:27;101435.28;;;17.77;65.45
28004;BME280;15330;51.234;6.754;2022-10-04T17:13:23;101433.72;;;17.46;66.78
28004;BME280;15330;51.234;6.754;2022-10-04T17:18:35;101423.41;;;17.35;67.16
28004;BME280;15330;51.234;6.754;2022-10-04T17:21:09;101428.28;;;17.25;67.76
28004;BME280;15330;51.234;6.754;2022-10-04T17:48:04;101455.13;;;17.05;68.74
28004;BME280;15330;51.234;6.754;2022-10-04T17:50:49;101450.78;;;16.90;69.84
28004;BME280;15330;51.234;6.754;2022-10-04T17:53:41;101458.78;;;16.83;70.06
28004;BME280;15330;51.234;6.754;2022-10-04T17:56:35;101462.72;;;16.80;69.94
28004;BME280;15330;51.234;6.754;2022-10-04T17:59:11;101467.00;;;16.75;70.61
28004;BME280;15330;51.234;6.754;2022-10-04T18:01:44;101465.72;;;16.71;71.07
28004;BME280;15330;51.234;6.754;2022-10-04T18:04:29;101469.22;;;16.57;71.31
28004;BME280;15330;51.234;6.754;2022-10-04T18:08:11;101467.72;;;16.54;71.79
28004;BME280;15330;51.234;6.754;2022-10-04T18:10:36;101467.63;;;16.47;72.10
28004;BME280;15330;51.234;6.754;2022-10-04T18:13:14;101467.63;;;16.47;72.09
28004;BME280;15330;51.234;6.754;2022-10-04T18:16:18;101476.56;;;16.48;72.06
28004;BME280;15330;51.234;6.754;2022-10-04T18:18:46;101475.16;;;16.37;72.44
28004;BME280;15330;51.234;6.754;2022-10-04T18:21:20;101481.59;;;16.36;72.74
28004;BME280;15330;51.234;6.754;2022-10-04T18:27:00;101464.47;;;16.29;73.53
28004;BME280;15330;51.234;6.754;2022-10-04T18:29:43;101475.78;;;16.25;73.79
28004;BME280;15330;51.234;6.754;2022-10-04T18:32:52;101478.50;;;16.25;73.49
28004;BME280;15330;51.234;6.754;2022-10-04T18:40:40;101501.13;;;15.86;74.47
28004;BME280;15330;51.234;6.754;2022-10-04T18:43:39;101507.78;;;15.98;72.93
28004;BME280;15330;51.234;6.754;2022-10-04T18:46:21;101503.03;;;15.77;73.78
28004;BME280;15330;51.234;6.754;2022-10-04T18:53:53;101512.78;;;16.01;72.04
28004;BME280;15330;51.234;6.754;2022-10-04T18:56:24;101520.59;;;15.96;72.74
28004;BME280;15330;51.234;6.754;2022-10-04T19:07:44;101510.81;;;15.95;71.78
28004;BME280;15330;51.234;6.754;2022-10-04T19:10:30;101514.44;;;15.88;72.10
28004;BME280;15330;51.234;6.754;2022-10-04T19:27:42;101476.53;;;15.81;70.70
28004;BME280;15330;51.234;6.754;2022-10-04T19:30:19;101479.16;;;15.89;70.22
28004;BME280;15330;51.234;6.754;2022-10-04T19:43:57;101482.59;;;15.83;70.17
28004;BME280;15330;51.234;6.754;2022-10-04T19:52:12;101491.03;;;15.80;71.21
28004;BME280;15330;51.234;6.754;2022-10-04T19:54:39;101491.53;;;15.84;70.59
28004;BME280;15330;51.234;6.754;2022-10-04T19:57:10;101496.44;;;15.80;70.13
28004;BME280;15330;51.234;6.754;2022-10-04T19:59:39;101500.44;;;15.84;69.97
28004;BME280;15330;51.234;6.754;2022-10-04T20:02:09;101501.97;;;15.87;70.63
28004;BME280;15330;51.234;6.754;2022-10-04T20:04:35;101493.91;;;15.78;70.49
28004;BME280;15330;51.234;6.754;2022-10-04T20:07:24;101489.50;;;15.63;72.54
28004;BME280;15330;51.234;6.754;2022-10-04T20:12:36;101484.03;;;15.40;72.21
28004;BME280;15330;51.234;6.754;2022-10-04T20:15:41;101493.75;;;15.49;71.64
28004;BME280;15330;51.234;6.754;2022-10-04T20:21:04;101482.31;;;15.47;71.69
28004;BME280;15330;51.234;6.754;2022-10-04T20:23:49;101492.00;;;15.33;71.76
28004;BME280;15330;51.234;6.754;2022-10-04T20:26:37;101490.59;;;15.46;71.40
28004;BME280;15330;51.234;6.754;2022-10-04T20:32:09;101493.72;;;15.26;72.33
28004;BME280;15330;51.234;6.754;2022-10-04T20:37:07;101495.50;;;15.11;72.94
28004;BME280;15330;51.234;6.754;2022-10-04T20:42:27;101475.78;;;15.11;73.08
28004;BME280;15330;51.234;6.754;2022-10-04T20:45:21;101485.16;;;15.23;72.71
28004;BME280;15330;51.234;6.754;2022-10-04T20:47:54;101472.38;;;15.17;72.84
28004;BME280;15330;51.234;6.754;2022-10-04T20:50:36;101477.66;;;15.10;72.97
28004;BME280;15330;51.234;6.754;2022-10-04T20:53:14;101478.16;;;15.14;73.18
28004;BME280;15330;51.234;6.754;2022-10-04T20:55:41;101477.81;;;15.09;73.66
28004;BME280;15330;51.234;6.754;2022-10-04T20:58:28;101478.84;;;15.07;73.97
28004;BME280;15330;51.234;6.754;2022-10-04T21:01:42;101475.28;;;14.76;75.26
28004;BME280;15330;51.234;6.754;2022-10-04T21:07:06;101475.53;;;14.50;76.93
28004;BME280;15330;51.234;6.754;2022-10-04T21:09:33;101477.50;;;14.64;76.59
28004;BME280;15330;51.234;6.754;2022-10-04T21:12:00;101474.81;;;14.64;76.66
28004;BME280;15330;51.234;6.754;2022-10-04T21:14:27;101471.50;;;14.46;77.83
28004;BME280;15330;51.234;6.754;2022-10-04T21:16:54;101476.88;;;14.46;77.87
28004;BME280;15330;51.234;6.754;2022-10-04T21:26:58;101491.19;;;14.39;78.14
28004;BME280;15330;51.234;6.754;2022-10-04T21:29:24;101485.13;;;14.45;77.89
28004;BME280;15330;51.234;6.754;2022-10-04T21:31:49;101482.97;;;14.40;78.29
28004;BME280;15330;51.234;6.754;2022-10-04T21:34:14;101482.94;;;14.48;77.91
28004;BME280;15330;51.234;6.754;2022-10-04T21:36:40;101479.28;;;14.41;78.01
28004;BME280;15330;51.234;6.754;2022-10-04T21:39:05;101494.06;;;14.53;77.45
28004;BME280;15330;51.234;6.754;2022-10-04T21:41:30;101493.19;;;14.45;77.98
28004;BME280;15330;51.234;6.754;2022-10-04T21:43:56;101482.97;;;14.32;78.59
28004;BME280;15330;51.234;6.754;2022-10-04T21:46:21;101480.78;;;14.27;78.66
28004;BME280;15330;51.234;6.754;2022-10-04T21:48:46;101479.09;;;14.26;78.83
28004;BME280;15330;51.234;6.754;2022-10-04T21:51:12;101475.75;;;14.08;79.91
28004;BME280;15330;51.234;6.754;2022-10-04T21:53:37;101470.88;;;14.12;79.95
28004;BME280;15330;51.234;6.754;2022-10-04T21:56:02;101486.34;;;14.02;80.36
28004;BME280;15330;51.234;6.754;2022-10-04T21:58:28;101488.53;;;13.98;80.97
28004;BME280;15330;51.234;6.754;2022-10-04T22:00:53;101481.97;;;14.09;80.33
28004;BME280;15330;51.234;6.754;2022-10-04T22:03:19;101484.00;;;13.99;80.48
28004;BME280;15330;51.234;6.754;2022-10-04T22:05:44;101489.03;;;13.77;81.51
28004;BME280;15330;51.234;6.754;2022-10-04T22:08:09;101488.38;;;13.83;81.11
28004;BME280;15330;51.234;6.754;2022-10-04T22:10:35;101486.69;;;14.07;79.95
28004;BME280;15330;51.234;6.754;2022-10-04T22:13:00;101494.09;;;13.88;80.58
28004;BME280;15330;51.234;6.754;2022-10-04T22:15:27;101485.16;;;14.04;79.78
28004;BME280;15330;51.234;6.754;2022-10-04T22:17:53;101486.34;;;13.93;80.15
28004;BME280;15330;51.234;6.754;2022-10-04T22:20:18;101476.94;;;13.98;79.65
28004;BME280;15330;51.234;6.754;2022-10-04T22:22:44;101472.72;;;13.71;80.99
28004;BME280;15330;51.234;6.754;2022-10-04T22:25:13;101464.84;;;13.85;80.38
28004;BME280;15330;51.234;6.754;2022-10-04T22:27:39;101461.31;;;13.77;80.45
28004;BME280;15330;51.234;6.754;2022-10-04T22:30:09;101469.88;;;13.72;80.27
28004;BME280;15330;51.234;6.754;2022-10-04T22:32:36;101464.84;;;13.77;80.21
28004;BME280;15330;51.234;6.754;2022-10-04T22:35:11;101470.56;;;13.90;79.65
28004;BME280;15330;51.234;6.754;2022-10-04T22:37:37;101464.81;;;13.61;80.59
28004;BME280;15330;51.234;6.754;2022-10-04T22:40:06;101476.25;;;13.71;80.27
28004;BME280;15330;51.234;6.754;2022-10-04T22:42:36;101478.94;;;13.71;80.07
28004;BME280;15330;51.234;6.754;2022-10-04T22:45:01;101488.03;;;13.70;80.22
28004;BME280;15330;51.234;6.754;2022-10-04T22:47:30;101483.47;;;13.71;80.22
28004;BME280;15330;51.234;6.754;2022-10-04T22:49:55;101485.50;;;13.69;80.37
28004;BME280;15330;51.234;6.754;2022-10-04T22:52:23;101485.31;;;13.62;80.95
28004;BME280;15330;51.234;6.754;2022-10-04T22:54:51;101484.84;;;13.67;80.68
28004;BME280;15330;51.234;6.754;2022-10-04T22:57:18;101475.94;;;13.66;80.72
28004;BME280;15330;51.234;6.754;2022-10-04T22:59:46;101464.34;;;13.66;80.84
28004;BME280;15330;51.234;6.754;2022-10-04T23:02:20;101462.50;;;13.58;81.25
28004;BME280;15330;51.234;6.754;2022-10-04T23:04:53;101466.03;;;13.58;81.36
28004;BME280;15330;51.234;6.754;2022-10-04T23:07:18;101457.94;;;13.58;81.31
28004;BME280;15330;51.234;6.754;2022-10-04T23:09:44;101464.34;;;13.57;81.41
28004;BME280;15330;51.234;6.754;2022-10-04T23:12:09;101459.09;;;13.40;82.03
28004;BME280;15330;51.234;6.754;2022-10-04T23:14:36;101458.91;;;13.41;82.03
28004;BME280;15330;51.234;6.754;2022-10-04T23:17:19;101464.81;;;13.53;81.55
28004;BME280;15330;51.234;6.754;2022-10-04T23:19:46;101454.69;;;13.31;82.38
28004;BME280;15330;51.234;6.754;2022-10-04T23:22:16;101463.97;;;13.36;82.08
28004;BME280;15330;51.234;6.754;2022-10-04T23:24:42;101467.44;;;13.20;82.69
28004;BME280;15330;51.234;6.754;2022-10-04T23:27:14;101470.47;;;13.17;82.77
28004;BME280;15330;51.234;6.754;2022-10-04T23:29:40;101459.06;;;13.32;82.54
28004;BME280;15330;51.234;6.754;2022-10-04T23:32:14;101456.91;;;13.35;82.10
28004;BME280;15330;51.234;6.754;2022-10-04T23:34:45;101458.91;;;13.41;81.72
28004;BME280;15330;51.234;6.754;2022-10-04T23:37:16;101459.59;;;13.27;82.07
28004;BME280;15330;51.234;6.754;2022-10-04T23:39:43;101455.84;;;13.20;82.50
28004;BME280;15330;51.234;6.754;2022-10-04T23:42:16;101460.75;;;13.16;82.86
28004;BME280;15330;51.234;6.754;2022-10-04T23:44:43;101456.31;;;13.07;83.07
28004;BME280;15330;51.234;6.754;2022-10-04T23:47:17;101454.38;;;13.34;81.75
28004;BME280;15330;51.234;6.754;2022-10-04T23:49:47;101450.53;;;13.28;82.09
28004;BME280;15330;51.234;6.754;2022-10-04T23:52:27;101452.84;;;13.15;82.16
28004;BME280;15330;51.234;6.754;2022-10-04T23:54:54;101436.72;;;13.23;82.14
28004;BME280;15330;51.234;6.754;2022-10-04T23:57:21;101438.69;;;13.13;82.72
28004;BME280;15330;51.234;6.754;2022-10-04T23:59:48;101439.09;;;13.18;82.34
